Flight Number: EUR1538 Duration: 1:30
Departure: Liverpool Airport (EGGP) at 18:15 Distance: 272 Nm
Arrival: Barra Airport (EGPR) at 19:45 Equipment: B1900D

Weather Information
Liverpool Airport , United Kingdom (EGGP) 53-20N 002-51W Jan 23, 2018 - 04:20 AM EST / 2018.01.23 0920 UTC
Wind: from the SSE (160 degrees) at 13 MPH (11 KT):0
Visibility: greater than 7 mile(s):0
Sky conditions: mostly cloudy Temperature: 50 F (10 C) Dew Point: 50 F (10 C) Relative Humidity: 100% Pressure (altimeter): 29.74 in. Hg (1007 hPa)
ob: EGGP 230920Z 16011KT 9999 FEW008 SCT014 BKN019 10/10 Q1007 cycle: 9
Sunrise: 08:13 Sunset: 16:33 (UTC)

404 Not Found

Not Found

The requested URL /data/observations/metar/decoded/EGPR.TXT was not found on this server.


Sunrise: 08:49 Sunset: 16:33 (UTC)

TAF: 404 Not Found

Not Found

The requested URL /data/forecasts/taf/stations/EGPR.TXT was not found on this server.



Previous Pireps for this route
Date Aircraft Flight time Fuel used Landing rate On time
2016-02-26B1900D01.241314-588No
(pireps marked green are flown by you)

Route map